Thunder radar more information blitzortung!


Radar de pluja more information rain snow radar


Visita la nostra xarxa de llocs de meteo:

Template documentation
and downloads

And another site



No particular awareness of the weather is required.    There are no Weather-warnings

Pagina Historial Weather Underground text

Diari Resum Setembre 6, 2017 Unitats:  Tant    Imperial   Mètric
« Previous Dia
SegĂźent Dia »
Diari Setmana Mensual Anual Personalitzada
  Maxima: Minima: Media:
Temperatura: 85.6 °F /  29.8 °C 66.7 °F /  19.3 °C 75.7 °F /  24.3 °C
Punt de rosada: 68.2 °F /  20.1 °C 52.3 °F /  11.3 °C 64.8 °F /  18.2 °C
Humitat: 88 % 53 % 69 %
Wind Speed: 13.8 mph /  22.2 km/h - 3.3 mph /  5.3 km/h
RĂ fegues de vent: 13.8 mph /  22.2 km/h - -
Vent:- - South
Pression baro: 30.2 in /  1020.9 hPa 30 in /  1015.8 hPa -
Precipitacions: 0 in /  0.0 mm    
Historical Graphs
 
 
Dades de taula per Setembre 6, 2017
Temps Temperatura Punt de rosada Pression baro Vent Wind Speed RĂ fegues de vent Humitat Rainfall Rate (Hourly)
00:00 69.4 °F /  20.8 °C 65.1 °F /  18.4 °C 30.1 in /  1019.9 hPa SW 1 mph /  1.6 km/h 1 mph /  1.6 km/h 86 % 0 in /  0.0 mm
00:02 72.7 °F /  22.6 °C 64.2 °F /  17.9 °C 30.1 in /  1019.9 hPa WSW 2.3 mph /  3.7 km/h 2.3 mph /  3.7 km/h 75 % 0 in /  0.0 mm
00:10 69.4 °F /  20.8 °C 65.1 °F /  18.4 °C 30.1 in /  1019.9 hPa Calm   2 mph /  3.2 km/h 86 % 0 in /  0.0 mm
00:20 68.9 °F /  20.5 °C 64.6 °F /  18.1 °C 30.1 in /  1019.9 hPa ESE 1 mph /  1.6 km/h 2 mph /  3.2 km/h 86 % 0 in /  0.0 mm
00:30 68.7 °F /  20.4 °C 64.4 °F /  18.0 °C 30.1 in /  1019.9 hPa SSW 1 mph /  1.6 km/h 2 mph /  3.2 km/h 86 % 0 in /  0.0 mm
00:40 68.2 °F /  20.1 °C 63.5 °F /  17.5 °C 30.1 in /  1019.9 hPa SW 2 mph /  3.2 km/h 3 mph /  4.8 km/h 85 % 0 in /  0.0 mm
00:50 68 °F /  20.0 °C 63.7 °F /  17.6 °C 30.1 in /  1019.9 hPa Calm   3 mph /  4.8 km/h 86 % 0 in /  0.0 mm
01:00 68 °F /  20.0 °C 64 °F /  17.8 °C 30.1 in /  1019.9 hPa Calm     87 % 0 in /  0.0 mm
01:10 68 °F /  20.0 °C 64 °F /  17.8 °C 30.1 in /  1019.9 hPa Calm   1 mph /  1.6 km/h 87 % 0 in /  0.0 mm
01:20 68 °F /  20.0 °C 64 °F /  17.8 °C 30.1 in /  1019.9 hPa Calm     87 % 0 in /  0.0 mm
01:30 67.6 °F /  19.8 °C 63.7 °F /  17.6 °C 30.1 in /  1018.8 hPa NNE 1 mph /  1.6 km/h 1 mph /  1.6 km/h 87 % 0 in /  0.0 mm
01:40 67.6 °F /  19.8 °C 64 °F /  17.8 °C 30.1 in /  1019.9 hPa Calm     88 % 0 in /  0.0 mm
01:50 67.6 °F /  19.8 °C 64 °F /  17.8 °C 30.1 in /  1019.9 hPa Calm     88 % 0 in /  0.0 mm
02:00 67.6 °F /  19.8 °C 64 °F /  17.8 °C 30.1 in /  1019.9 hPa Calm     88 % 0 in /  0.0 mm
02:10 67.6 °F /  19.8 °C 64 °F /  17.8 °C 30.1 in /  1018.8 hPa Calm   1 mph /  1.6 km/h 88 % 0 in /  0.0 mm
02:20 67.5 °F /  19.7 °C 63.9 °F /  17.7 °C 30.1 in /  1018.8 hPa Calm     88 % 0 in /  0.0 mm
02:30 66.9 °F /  19.4 °C 63.1 °F /  17.3 °C 30.1 in /  1019.9 hPa Calm   2 mph /  3.2 km/h 88 % 0 in /  0.0 mm
02:40 67.1 °F /  19.5 °C 63.3 °F /  17.4 °C 30.1 in /  1019.9 hPa Calm     88 % 0 in /  0.0 mm
02:50 67.1 °F /  19.5 °C 63.3 °F /  17.4 °C 30.1 in /  1019.9 hPa Calm   1 mph /  1.6 km/h 88 % 0 in /  0.0 mm
03:00 66.7 °F /  19.3 °C 63.1 °F /  17.3 °C 30.1 in /  1018.8 hPa Calm   2 mph /  3.2 km/h 88 % 0 in /  0.0 mm
03:10 66.7 °F /  19.3 °C 63.1 °F /  17.3 °C 30.1 in /  1018.8 hPa Calm   2 mph /  3.2 km/h 88 % 0 in /  0.0 mm
03:20 66.7 °F /  19.3 °C 62.8 °F /  17.1 °C 30.1 in /  1018.8 hPa SW 2 mph /  3.2 km/h 3 mph /  4.8 km/h 87 % 0 in /  0.0 mm
03:30 66.7 °F /  19.3 °C 63.1 °F /  17.3 °C 30.1 in /  1019.9 hPa Calm   3 mph /  4.8 km/h 88 % 0 in /  0.0 mm
03:40 66.7 °F /  19.3 °C 63.1 °F /  17.3 °C 30.1 in /  1019.9 hPa SW 1 mph /  1.6 km/h 2 mph /  3.2 km/h 88 % 0 in /  0.0 mm
03:50 67.3 °F /  19.6 °C 63.7 °F /  17.6 °C 30.1 in /  1019.9 hPa SW 1 mph /  1.6 km/h 2 mph /  3.2 km/h 88 % 0 in /  0.0 mm
04:00 69.1 °F /  20.6 °C 65.5 °F /  18.6 °C 30.1 in /  1019.9 hPa Calm   1 mph /  1.6 km/h 88 % 0 in /  0.0 mm
04:10 69.3 °F /  20.7 °C 64.9 °F /  18.3 °C 30.1 in /  1019.9 hPa SW 1 mph /  1.6 km/h 2 mph /  3.2 km/h 86 % 0 in /  0.0 mm
04:20 69.8 °F /  21.0 °C 64.8 °F /  18.2 °C 30.1 in /  1019.9 hPa SW 1 mph /  1.6 km/h 2 mph /  3.2 km/h 84 % 0 in /  0.0 mm
04:30 71.4 °F /  21.9 °C 66 °F /  18.9 °C 30.1 in /  1019.9 hPa Calm   2 mph /  3.2 km/h 83 % 0 in /  0.0 mm
04:40 72.9 °F /  22.7 °C 66.9 °F /  19.4 °C 30.1 in /  1019.9 hPa Calm   2 mph /  3.2 km/h 82 % 0 in /  0.0 mm
04:50 75 °F /  23.9 °C 68.2 °F /  20.1 °C 30.1 in /  1019.9 hPa ENE 1 mph /  1.6 km/h 2 mph /  3.2 km/h 79 % 0 in /  0.0 mm
09:54 74.1 °F /  23.4 °C 66.4 °F /  19.1 °C 30.1 in /  1019.9 hPa East 2.3 mph /  3.7 km/h 2.3 mph /  3.7 km/h 77 % 0 in /  0.0 mm
09:55 74.1 °F /  23.4 °C 66.4 °F /  19.1 °C 30.1 in /  1019.9 hPa East 2.3 mph /  3.7 km/h 2.3 mph /  3.7 km/h 77 % 0 in /  0.0 mm
10:00 74.5 °F /  23.6 °C 66.7 °F /  19.3 °C 30.1 in /  1019.9 hPa SSE 3.3 mph /  5.3 km/h 3.3 mph /  5.3 km/h 77 % 0 in /  0.0 mm
10:05 74.3 °F /  23.5 °C 66.6 °F /  19.2 °C 30.1 in /  1019.9 hPa SW 2.3 mph /  3.7 km/h 2.3 mph /  3.7 km/h 77 % 0 in /  0.0 mm
10:10 74.3 °F /  23.5 °C 66.6 °F /  19.2 °C 30.1 in /  1019.9 hPa SE 1.2 mph /  1.9 km/h 1.2 mph /  1.9 km/h 77 % 0 in /  0.0 mm
10:15 74.7 °F /  23.7 °C 66.6 °F /  19.2 °C 30.1 in /  1019.9 hPa SW 2.3 mph /  3.7 km/h 2.3 mph /  3.7 km/h 76 % 0 in /  0.0 mm
10:20 75.2 °F /  24.0 °C 66.7 °F /  19.3 °C 30.1 in /  1019.9 hPa South 4.6 mph /  7.4 km/h 4.6 mph /  7.4 km/h 75 % 0 in /  0.0 mm
10:25 75.6 °F /  24.2 °C 67.1 °F /  19.5 °C 30.2 in /  1020.9 hPa South 3.8 mph /  6.1 km/h 3.8 mph /  6.1 km/h 75 % 0 in /  0.0 mm
10:30 75.4 °F /  24.1 °C 66.6 °F /  19.2 °C 30.2 in /  1020.9 hPa ENE 1.2 mph /  1.9 km/h 1.2 mph /  1.9 km/h 74 % 0 in /  0.0 mm
10:35 75.2 °F /  24.0 °C 66.4 °F /  19.1 °C 30.2 in /  1020.9 hPa ESE 2.9 mph /  4.7 km/h 2.9 mph /  4.7 km/h 74 % 0 in /  0.0 mm
10:36 75.2 °F /  24.0 °C 66.4 °F /  19.1 °C 30.2 in /  1020.9 hPa SE 2.3 mph /  3.7 km/h 2.3 mph /  3.7 km/h 74 % 0 in /  0.0 mm
10:41 74.8 °F /  23.8 °C 66 °F /  18.9 °C 30.1 in /  1019.9 hPa WSW 2.3 mph /  3.7 km/h 2.3 mph /  3.7 km/h 74 % 0 in /  0.0 mm
10:46 74.8 °F /  23.8 °C 66 °F /  18.9 °C 30.1 in /  1019.9 hPa SW 3.5 mph /  5.6 km/h 3.5 mph /  5.6 km/h 74 % 0 in /  0.0 mm
10:51 75.2 °F /  24.0 °C 65.7 °F /  18.7 °C 30.1 in /  1019.9 hPa SSE 3.5 mph /  5.6 km/h 3.5 mph /  5.6 km/h 72 % 0 in /  0.0 mm
10:56 76.1 °F /  24.5 °C 66.7 °F /  19.3 °C 30.2 in /  1020.9 hPa SW 1.2 mph /  1.9 km/h 1.2 mph /  1.9 km/h 73 % 0 in /  0.0 mm
11:01 76.5 °F /  24.7 °C 66.7 °F /  19.3 °C 30.2 in /  1020.9 hPa SW 1.2 mph /  1.9 km/h 1.2 mph /  1.9 km/h 72 % 0 in /  0.0 mm
11:06 76.3 °F /  24.6 °C 66.2 °F /  19.0 °C 30.2 in /  1020.9 hPa South 4.6 mph /  7.4 km/h 4.6 mph /  7.4 km/h 71 % 0 in /  0.0 mm
11:11 76.5 °F /  24.7 °C 66.4 °F /  19.1 °C 30.2 in /  1020.9 hPa SW 1.2 mph /  1.9 km/h   71 % 0 in /  0.0 mm
11:16 76.8 °F /  24.9 °C 66.7 °F /  19.3 °C 30.2 in /  1020.9 hPa NNE 2.4 mph /  3.9 km/h 2.4 mph /  3.9 km/h 71 % 0 in /  0.0 mm
11:21 76.6 °F /  24.8 °C 66.6 °F /  19.2 °C 30.2 in /  1020.9 hPa NE 2.3 mph /  3.7 km/h 2.3 mph /  3.7 km/h 71 % 0 in /  0.0 mm
11:26 76.3 °F /  24.6 °C 66.2 °F /  19.0 °C 30.1 in /  1019.9 hPa SW 4.6 mph /  7.4 km/h 4.6 mph /  7.4 km/h 71 % 0 in /  0.0 mm
11:31 76.8 °F /  24.9 °C 66.4 °F /  19.1 °C 30.1 in /  1019.9 hPa SW 2.9 mph /  4.7 km/h 2.9 mph /  4.7 km/h 70 % 0 in /  0.0 mm
11:36 77 °F /  25.0 °C 65.7 °F /  18.7 °C 30.1 in /  1019.9 hPa SSE 4.6 mph /  7.4 km/h 4.6 mph /  7.4 km/h 68 % 0 in /  0.0 mm
11:41 77.5 °F /  25.3 °C 65.7 °F /  18.7 °C 30.1 in /  1019.9 hPa ENE 2.4 mph /  3.9 km/h   67 % 0 in /  0.0 mm
11:46 77.5 °F /  25.3 °C 65.3 °F /  18.5 °C 30.1 in /  1019.9 hPa ESE 3.5 mph /  5.6 km/h 3.5 mph /  5.6 km/h 66 % 0 in /  0.0 mm
11:51 77.9 °F /  25.5 °C 66 °F /  18.9 °C 30.1 in /  1019.9 hPa NE 3.5 mph /  5.6 km/h 3.5 mph /  5.6 km/h 67 % 0 in /  0.0 mm
11:56 77.9 °F /  25.5 °C 65.7 °F /  18.7 °C 30.2 in /  1020.9 hPa NNE 2.9 mph /  4.7 km/h 2.9 mph /  4.7 km/h 66 % 0 in /  0.0 mm
12:01 78.4 °F /  25.8 °C 65.7 °F /  18.7 °C 30.2 in /  1020.9 hPa SSE 4.6 mph /  7.4 km/h 4.6 mph /  7.4 km/h 65 % 0 in /  0.0 mm
12:06 79.5 °F /  26.4 °C 67.3 °F /  19.6 °C 30.2 in /  1020.9 hPa NNE 2.3 mph /  3.7 km/h 2.3 mph /  3.7 km/h 66 % 0 in /  0.0 mm
12:11 80.6 °F /  27.0 °C 67.3 °F /  19.6 °C 30.1 in /  1019.9 hPa SW 3.5 mph /  5.6 km/h 3.5 mph /  5.6 km/h 64 % 0 in /  0.0 mm
12:16 80.4 °F /  26.9 °C 67.6 °F /  19.8 °C 30.1 in /  1019.9 hPa WSW 3.5 mph /  5.6 km/h 3.5 mph /  5.6 km/h 65 % 0 in /  0.0 mm
12:21 80.8 °F /  27.1 °C 66.6 °F /  19.2 °C 30.1 in /  1019.9 hPa SSE 3.5 mph /  5.6 km/h 3.5 mph /  5.6 km/h 62 % 0 in /  0.0 mm
12:26 81 °F /  27.2 °C 66.7 °F /  19.3 °C 30.1 in /  1018.8 hPa SW 3.8 mph /  6.1 km/h 3.8 mph /  6.1 km/h 62 % 0 in /  0.0 mm
12:31 80.8 °F /  27.1 °C 66.6 °F /  19.2 °C 30.1 in /  1018.8 hPa WSW 4.3 mph /  6.9 km/h 4.3 mph /  6.9 km/h 62 % 0 in /  0.0 mm
12:36 80.2 °F /  26.8 °C 66 °F /  18.9 °C 30.1 in /  1018.8 hPa South 2.3 mph /  3.7 km/h 2.3 mph /  3.7 km/h 62 % 0 in /  0.0 mm
12:41 80.2 °F /  26.8 °C 66.6 °F /  19.2 °C 30.1 in /  1019.9 hPa WSW 3.8 mph /  6.1 km/h 3.8 mph /  6.1 km/h 63 % 0 in /  0.0 mm
12:46 80.6 °F /  27.0 °C 65.8 °F /  18.8 °C 30.1 in /  1019.9 hPa West 3.5 mph /  5.6 km/h 3.5 mph /  5.6 km/h 61 % 0 in /  0.0 mm
12:51 80.6 °F /  27.0 °C 65.5 °F /  18.6 °C 30.1 in /  1019.9 hPa SW 5.8 mph /  9.3 km/h 5.8 mph /  9.3 km/h 60 % 0 in /  0.0 mm
12:56 81.7 °F /  27.6 °C 66 °F /  18.9 °C 30.1 in /  1019.9 hPa SSE 2.3 mph /  3.7 km/h 2.3 mph /  3.7 km/h 59 % 0 in /  0.0 mm
13:01 81.7 °F /  27.6 °C 64.9 °F /  18.3 °C 30.1 in /  1019.9 hPa East 5.8 mph /  9.3 km/h 5.8 mph /  9.3 km/h 57 % 0 in /  0.0 mm
13:06 81.9 °F /  27.7 °C 65.1 °F /  18.4 °C 30.1 in /  1019.9 hPa East 4.6 mph /  7.4 km/h 4.6 mph /  7.4 km/h 57 % 0 in /  0.0 mm
13:11 82 °F /  27.8 °C 65.3 °F /  18.5 °C 30.1 in /  1019.9 hPa East 3.5 mph /  5.6 km/h 3.5 mph /  5.6 km/h 57 % 0 in /  0.0 mm
13:21 81.9 °F /  27.7 °C 63.7 °F /  17.6 °C 30.1 in /  1019.9 hPa ESE 5.8 mph /  9.3 km/h 5.8 mph /  9.3 km/h 54 % 0 in /  0.0 mm
13:26 81 °F /  27.2 °C 64.2 °F /  17.9 °C 30.1 in /  1018.8 hPa NE 2.3 mph /  3.7 km/h 2.3 mph /  3.7 km/h 57 % 0 in /  0.0 mm
13:31 81.1 °F /  27.3 °C 64.9 °F /  18.3 °C 30.1 in /  1018.8 hPa North 1.2 mph /  1.9 km/h 1.4 mph /  2.3 km/h 58 % 0 in /  0.0 mm
13:36 81.1 °F /  27.3 °C 64 °F /  17.8 °C 30.1 in /  1018.8 hPa East 5.8 mph /  9.3 km/h 5.8 mph /  9.3 km/h 56 % 0 in /  0.0 mm
13:46 80.6 °F /  27.0 °C 64.6 °F /  18.1 °C 30.1 in /  1018.8 hPa ENE 6 mph /  9.7 km/h 6 mph /  9.7 km/h 58 % 0 in /  0.0 mm
13:51 81.1 °F /  27.3 °C 65.5 °F /  18.6 °C 30.1 in /  1018.8 hPa ESE 6.9 mph /  11.1 km/h 6.9 mph /  11.1 km/h 59 % 0 in /  0.0 mm
13:56 81 °F /  27.2 °C 64.8 °F /  18.2 °C 30.1 in /  1018.8 hPa North 5.8 mph /  9.3 km/h 5.8 mph /  9.3 km/h 58 % 0 in /  0.0 mm
14:01 80.4 °F /  26.9 °C 65.3 °F /  18.5 °C 30.1 in /  1018.8 hPa East 6.9 mph /  11.1 km/h 6.9 mph /  11.1 km/h 60 % 0 in /  0.0 mm
14:06 80.2 °F /  26.8 °C 65.7 °F /  18.7 °C 30.1 in /  1018.8 hPa WSW 3.5 mph /  5.6 km/h 3.5 mph /  5.6 km/h 61 % 0 in /  0.0 mm
14:11 81.3 °F /  27.4 °C 65.7 °F /  18.7 °C 30.1 in /  1018.8 hPa SE 2.9 mph /  4.7 km/h 2.9 mph /  4.7 km/h 59 % 0 in /  0.0 mm
14:16 82.4 °F /  28.0 °C 66 °F /  18.9 °C 30.1 in /  1018.8 hPa SSE 3.5 mph /  5.6 km/h 3.5 mph /  5.6 km/h 58 % 0 in /  0.0 mm
14:21 81.7 °F /  27.6 °C 65.5 °F /  18.6 °C 30.1 in /  1018.8 hPa ESE 5.9 mph /  9.5 km/h 5.9 mph /  9.5 km/h 58 % 0 in /  0.0 mm
14:26 81.5 °F /  27.5 °C 65.3 °F /  18.5 °C 30.1 in /  1017.8 hPa SSE 2.6 mph /  4.2 km/h 2.6 mph /  4.2 km/h 58 % 0 in /  0.0 mm
14:31 81.3 °F /  27.4 °C 65.1 °F /  18.4 °C 30.1 in /  1017.8 hPa SSE 3.5 mph /  5.6 km/h 3.5 mph /  5.6 km/h 58 % 0 in /  0.0 mm
14:36 80.6 °F /  27.0 °C 65.5 °F /  18.6 °C 30.1 in /  1017.8 hPa ESE 8.1 mph /  13.0 km/h 8.1 mph /  13.0 km/h 60 % 0 in /  0.0 mm
14:41 80.1 °F /  26.7 °C 65.5 °F /  18.6 °C 30.1 in /  1018.8 hPa ESE 6 mph /  9.7 km/h 6 mph /  9.7 km/h 61 % 0 in /  0.0 mm
14:46 80.6 °F /  27.0 °C 65.5 °F /  18.6 °C 30.1 in /  1018.8 hPa SE 6.2 mph /  10.0 km/h 6.2 mph /  10.0 km/h 60 % 0 in /  0.0 mm
14:51 80.2 °F /  26.8 °C 65.7 °F /  18.7 °C 30.1 in /  1018.8 hPa ESE 9.2 mph /  14.8 km/h 9.2 mph /  14.8 km/h 61 % 0 in /  0.0 mm
14:56 79.3 °F /  26.3 °C 65.1 °F /  18.4 °C 30.1 in /  1017.8 hPa ESE 10.4 mph /  16.7 km/h 10.4 mph /  16.7 km/h 62 % 0 in /  0.0 mm
15:01 79.5 °F /  26.4 °C 65.5 °F /  18.6 °C 30.1 in /  1017.8 hPa ESE 7.6 mph /  12.2 km/h 7.6 mph /  12.2 km/h 62 % 0 in /  0.0 mm
15:06 79.5 °F /  26.4 °C 65.5 °F /  18.6 °C 30.1 in /  1017.8 hPa ENE 10.4 mph /  16.7 km/h 10.4 mph /  16.7 km/h 62 % 0 in /  0.0 mm
15:11 79.3 °F /  26.3 °C 65.1 °F /  18.4 °C 30.1 in /  1017.8 hPa ENE 10.4 mph /  16.7 km/h 10.4 mph /  16.7 km/h 62 % 0 in /  0.0 mm
15:16 79.7 °F /  26.5 °C 65.5 °F /  18.6 °C 30.1 in /  1017.8 hPa SE 7.4 mph /  11.9 km/h 7.4 mph /  11.9 km/h 62 % 0 in /  0.0 mm
15:21 79.7 °F /  26.5 °C 65.1 °F /  18.4 °C 30.1 in /  1017.8 hPa East 6.9 mph /  11.1 km/h 6.9 mph /  11.1 km/h 61 % 0 in /  0.0 mm
15:26 79.7 °F /  26.5 °C 65.1 °F /  18.4 °C 30.1 in /  1017.8 hPa East 6.9 mph /  11.1 km/h 6.9 mph /  11.1 km/h 61 % 0 in /  0.0 mm
15:31 79.7 °F /  26.5 °C 65.1 °F /  18.4 °C 30.1 in /  1017.8 hPa SE 6.9 mph /  11.1 km/h 6.9 mph /  11.1 km/h 61 % 0 in /  0.0 mm
15:36 79.7 °F /  26.5 °C 65.1 °F /  18.4 °C 30.1 in /  1017.8 hPa ESE 5.9 mph /  9.5 km/h 5.9 mph /  9.5 km/h 61 % 0 in /  0.0 mm
15:41 80.8 °F /  27.1 °C 65.7 °F /  18.7 °C 30 in /  1016.8 hPa East 4.6 mph /  7.4 km/h 4.6 mph /  7.4 km/h 60 % 0 in /  0.0 mm
15:46 81.7 °F /  27.6 °C 66 °F /  18.9 °C 30 in /  1016.8 hPa SE 2.9 mph /  4.7 km/h 2.9 mph /  4.7 km/h 59 % 0 in /  0.0 mm
15:51 82.6 °F /  28.1 °C 66.4 °F /  19.1 °C 30 in /  1016.8 hPa SSW 5.4 mph /  8.7 km/h 5.4 mph /  8.7 km/h 58 % 0 in /  0.0 mm
15:56 82 °F /  27.8 °C 65.3 °F /  18.5 °C 30.1 in /  1017.8 hPa East 4.6 mph /  7.4 km/h 4.6 mph /  7.4 km/h 57 % 0 in /  0.0 mm
16:01 82.6 °F /  28.1 °C 66.4 °F /  19.1 °C 30.1 in /  1017.8 hPa SSW 2.3 mph /  3.7 km/h 2.3 mph /  3.7 km/h 58 % 0 in /  0.0 mm
16:06 83.7 °F /  28.7 °C 66.7 °F /  19.3 °C 30.1 in /  1017.8 hPa SW 3.5 mph /  5.6 km/h 3.5 mph /  5.6 km/h 57 % 0 in /  0.0 mm
16:11 84.2 °F /  29.0 °C 66.7 °F /  19.3 °C 30 in /  1016.8 hPa SSE 4.6 mph /  7.4 km/h 4.6 mph /  7.4 km/h 56 % 0 in /  0.0 mm
16:12 84.6 °F /  29.2 °C 66.6 °F /  19.2 °C 30 in /  1016.8 hPa SW 4.3 mph /  6.9 km/h 4.3 mph /  6.9 km/h 55 % 0 in /  0.0 mm
16:17 84.9 °F /  29.4 °C 66.9 °F /  19.4 °C 30 in /  1016.8 hPa SE 5.8 mph /  9.3 km/h 5.8 mph /  9.3 km/h 55 % 0 in /  0.0 mm
16:22 84 °F /  28.9 °C 65.7 °F /  18.7 °C 30.1 in /  1017.8 hPa WSW 3.5 mph /  5.6 km/h 3.5 mph /  5.6 km/h 54 % 0 in /  0.0 mm
16:27 83.5 °F /  28.6 °C 65.7 °F /  18.7 °C 30.1 in /  1017.8 hPa SW 6.4 mph /  10.3 km/h 6.4 mph /  10.3 km/h 55 % 0 in /  0.0 mm
16:32 84 °F /  28.9 °C 66 °F /  18.9 °C 30.1 in /  1017.8 hPa SSW 5.8 mph /  9.3 km/h 5.8 mph /  9.3 km/h 55 % 0 in /  0.0 mm
16:33 84 °F /  28.9 °C 66 °F /  18.9 °C 30.1 in /  1017.8 hPa ESE 5.8 mph /  9.3 km/h 5.8 mph /  9.3 km/h 55 % 0 in /  0.0 mm
16:38 84.7 °F /  29.3 °C 66.4 °F /  19.1 °C 30 in /  1016.8 hPa West 4.7 mph /  7.6 km/h 4.7 mph /  7.6 km/h 54 % 0 in /  0.0 mm
16:43 85.1 °F /  29.5 °C 66 °F /  18.9 °C 30 in /  1016.8 hPa SSW 4.9 mph /  7.9 km/h 4.9 mph /  7.9 km/h 53 % 0 in /  0.0 mm
16:48 85.6 °F /  29.8 °C 66.6 °F /  19.2 °C 30 in /  1016.8 hPa West 6.2 mph /  10.0 km/h 6.2 mph /  10.0 km/h 53 % 0 in /  0.0 mm
16:53 84.9 °F /  29.4 °C 65.8 °F /  18.8 °C 30 in /  1016.8 hPa West 9.2 mph /  14.8 km/h 9.2 mph /  14.8 km/h 53 % 0 in /  0.0 mm
16:58 83.8 °F /  28.8 °C 65.5 °F /  18.6 °C 30 in /  1016.8 hPa SW 4.6 mph /  7.4 km/h 4.6 mph /  7.4 km/h 54 % 0 in /  0.0 mm
17:03 83.5 °F /  28.6 °C 65.1 °F /  18.4 °C 30 in /  1016.8 hPa SW 6.9 mph /  11.1 km/h 6.9 mph /  11.1 km/h 54 % 0 in /  0.0 mm
17:08 83.1 °F /  28.4 °C 64.8 °F /  18.2 °C 30 in /  1016.8 hPa SSE 4.6 mph /  7.4 km/h 4.6 mph /  7.4 km/h 54 % 0 in /  0.0 mm
17:18 82.8 °F /  28.2 °C 64.4 °F /  18.0 °C 30 in /  1016.8 hPa WSW 10.7 mph /  17.2 km/h 10.7 mph /  17.2 km/h 54 % 0 in /  0.0 mm
17:23 82 °F /  27.8 °C 64.2 °F /  17.9 °C 30 in /  1015.8 hPa SSW 8.1 mph /  13.0 km/h 8.1 mph /  13.0 km/h 55 % 0 in /  0.0 mm
17:28 81.1 °F /  27.3 °C 64 °F /  17.8 °C 30 in /  1015.8 hPa South 9.2 mph /  14.8 km/h 9.2 mph /  14.8 km/h 56 % 0 in /  0.0 mm
17:33 80.6 °F /  27.0 °C 63.5 °F /  17.5 °C 30 in /  1015.8 hPa South 6.9 mph /  11.1 km/h 6.9 mph /  11.1 km/h 56 % 0 in /  0.0 mm
17:38 80.6 °F /  27.0 °C 63.5 °F /  17.5 °C 30 in /  1015.8 hPa WSW 6.9 mph /  11.1 km/h 6.9 mph /  11.1 km/h 56 % 0 in /  0.0 mm
17:43 80.8 °F /  27.1 °C 64 °F /  17.8 °C 30 in /  1015.8 hPa South 4.3 mph /  6.9 km/h 4.3 mph /  6.9 km/h 57 % 0 in /  0.0 mm
17:48 80.2 °F /  26.8 °C 64 °F /  17.8 °C 30 in /  1015.8 hPa WSW 6.9 mph /  11.1 km/h 6.9 mph /  11.1 km/h 58 % 0 in /  0.0 mm
17:53 80.1 °F /  26.7 °C 64 °F /  17.8 °C 30 in /  1015.8 hPa SW 5.8 mph /  9.3 km/h 5.8 mph /  9.3 km/h 58 % 0 in /  0.0 mm
17:58 80.1 °F /  26.7 °C 64.4 °F /  18.0 °C 30 in /  1015.8 hPa SSW 5.8 mph /  9.3 km/h 5.8 mph /  9.3 km/h 59 % 0 in /  0.0 mm
18:03 80.1 °F /  26.7 °C 64.4 °F /  18.0 °C 30 in /  1015.8 hPa SW 9.2 mph /  14.8 km/h 9.2 mph /  14.8 km/h 59 % 0 in /  0.0 mm
18:08 79.7 °F /  26.5 °C 64.6 °F /  18.1 °C 30 in /  1016.8 hPa South 4.6 mph /  7.4 km/h 4.6 mph /  7.4 km/h 60 % 0 in /  0.0 mm
18:13 79.5 °F /  26.4 °C 64.4 °F /  18.0 °C 30 in /  1016.8 hPa SSW 6.9 mph /  11.1 km/h 6.9 mph /  11.1 km/h 60 % 0 in /  0.0 mm
18:18 79.5 °F /  26.4 °C 64.4 °F /  18.0 °C 30 in /  1016.8 hPa SW 2.9 mph /  4.7 km/h 2.9 mph /  4.7 km/h 60 % 0 in /  0.0 mm
18:19 79.5 °F /  26.4 °C 64.4 °F /  18.0 °C 30 in /  1016.8 hPa SW 6.9 mph /  11.1 km/h 6.9 mph /  11.1 km/h 60 % 0 in /  0.0 mm
18:24 79.2 °F /  26.2 °C 64 °F /  17.8 °C 30 in /  1015.8 hPa WSW 6.9 mph /  11.1 km/h 6.9 mph /  11.1 km/h 60 % 0 in /  0.0 mm
18:29 78.8 °F /  26.0 °C 64.2 °F /  17.9 °C 30 in /  1015.8 hPa SSW 6.9 mph /  11.1 km/h 6.9 mph /  11.1 km/h 61 % 0 in /  0.0 mm
18:34 78.4 °F /  25.8 °C 63.9 °F /  17.7 °C 30 in /  1015.8 hPa SW 8.1 mph /  13.0 km/h 8.1 mph /  13.0 km/h 61 % 0 in /  0.0 mm
18:39 78.6 °F /  25.9 °C 64.6 °F /  18.1 °C 30 in /  1016.8 hPa ESE 3.5 mph /  5.6 km/h 3.5 mph /  5.6 km/h 62 % 0 in /  0.0 mm
18:44 78.8 °F /  26.0 °C 64.8 °F /  18.2 °C 30 in /  1016.8 hPa SW 1.2 mph /  1.9 km/h 1.4 mph /  2.3 km/h 62 % 0 in /  0.0 mm
18:49 79.2 °F /  26.2 °C 64.6 °F /  18.1 °C 30 in /  1016.8 hPa SW 13.8 mph /  22.2 km/h 13.8 mph /  22.2 km/h 61 % 0 in /  0.0 mm
18:54 78.8 °F /  26.0 °C 64.8 °F /  18.2 °C 30 in /  1016.8 hPa West 7.1 mph /  11.4 km/h 7.1 mph /  11.4 km/h 62 % 0 in /  0.0 mm
18:59 78.3 °F /  25.7 °C 64.2 °F /  17.9 °C 30 in /  1016.8 hPa South 4.6 mph /  7.4 km/h 4.6 mph /  7.4 km/h 62 % 0 in /  0.0 mm
19:04 78.1 °F /  25.6 °C 64 °F /  17.8 °C 30 in /  1016.8 hPa SW 5.8 mph /  9.3 km/h 5.8 mph /  9.3 km/h 62 % 0 in /  0.0 mm
19:09 77.7 °F /  25.4 °C 63.7 °F /  17.6 °C 30 in /  1016.8 hPa SW 8.1 mph /  13.0 km/h 8.1 mph /  13.0 km/h 62 % 0 in /  0.0 mm
19:10 73 °F /  22.8 °C 65.8 °F /  18.8 °C 30.1 in /  1017.8 hPa Calm     78 % 0 in /  0.0 mm
19:14 77.4 °F /  25.2 °C 63.9 °F /  17.7 °C 30 in /  1016.8 hPa South 6.9 mph /  11.1 km/h 6.9 mph /  11.1 km/h 63 % 0 in /  0.0 mm
19:19 77.4 °F /  25.2 °C 63.9 °F /  17.7 °C 30 in /  1016.8 hPa SSW 3.5 mph /  5.6 km/h 3.5 mph /  5.6 km/h 63 % 0 in /  0.0 mm
19:24 77.2 °F /  25.1 °C 64 °F /  17.8 °C 30 in /  1016.8 hPa South 4.6 mph /  7.4 km/h 4.6 mph /  7.4 km/h 64 % 0 in /  0.0 mm
19:29 77 °F /  25.0 °C 63.9 °F /  17.7 °C 30 in /  1016.8 hPa SSW 6.9 mph /  11.1 km/h 6.9 mph /  11.1 km/h 64 % 0 in /  0.0 mm
19:30 72.9 °F /  22.7 °C 65.7 °F /  18.7 °C 30.1 in /  1017.8 hPa Calm     78 % 0 in /  0.0 mm
19:34 76.8 °F /  24.9 °C 64.2 °F /  17.9 °C 30 in /  1016.8 hPa South 5.8 mph /  9.3 km/h 5.8 mph /  9.3 km/h 65 % 0 in /  0.0 mm
19:39 76.6 °F /  24.8 °C 64 °F /  17.8 °C 30.1 in /  1017.8 hPa SW 3.5 mph /  5.6 km/h 3.5 mph /  5.6 km/h 65 % 0 in /  0.0 mm
19:40 72.9 °F /  22.7 °C 66 °F /  18.9 °C 30.1 in /  1017.8 hPa Calm     79 % 0 in /  0.0 mm
19:44 76.3 °F /  24.6 °C 64 °F /  17.8 °C 30.1 in /  1017.8 hPa SW 5.8 mph /  9.3 km/h 5.8 mph /  9.3 km/h 66 % 0 in /  0.0 mm
19:45 72.9 °F /  22.7 °C 66 °F /  18.9 °C 30.1 in /  1017.8 hPa Calm     79 % 0 in /  0.0 mm
19:49 76.1 °F /  24.5 °C 63.9 °F /  17.7 °C 30.1 in /  1017.8 hPa WSW 3.8 mph /  6.1 km/h 3.8 mph /  6.1 km/h 66 % 0 in /  0.0 mm
19:54 75.9 °F /  24.4 °C 64.2 °F /  17.9 °C 30.1 in /  1017.8 hPa West 3.5 mph /  5.6 km/h 3.5 mph /  5.6 km/h 67 % 0 in /  0.0 mm
19:55 72.9 °F /  22.7 °C 66 °F /  18.9 °C 30.1 in /  1017.8 hPa Calm   1 mph /  1.6 km/h 79 % 0 in /  0.0 mm
19:59 75.7 °F /  24.3 °C 63.7 °F /  17.6 °C 30.1 in /  1017.8 hPa West 6.2 mph /  10.0 km/h 6.2 mph /  10.0 km/h 66 % 0 in /  0.0 mm
20:04 75.6 °F /  24.2 °C 63.9 °F /  17.7 °C 30.1 in /  1017.8 hPa SSW 2.3 mph /  3.7 km/h 2.3 mph /  3.7 km/h 67 % 0 in /  0.0 mm
20:05 72.7 °F /  22.6 °C 65.8 °F /  18.8 °C 30.1 in /  1017.8 hPa Calm     79 % 0 in /  0.0 mm
20:09 75.4 °F /  24.1 °C 63.7 °F /  17.6 °C 30.1 in /  1017.8 hPa WSW 2.3 mph /  3.7 km/h 2.3 mph /  3.7 km/h 67 % 0 in /  0.0 mm
20:14 75.4 °F /  24.1 °C 63.7 °F /  17.6 °C 30.1 in /  1017.8 hPa SSW 3.5 mph /  5.6 km/h 3.5 mph /  5.6 km/h 67 % 0 in /  0.0 mm
20:15 72.5 °F /  22.5 °C 65.7 °F /  18.7 °C 30.1 in /  1017.8 hPa Calm     79 % 0 in /  0.0 mm
20:19 75.4 °F /  24.1 °C 64 °F /  17.8 °C 30.1 in /  1017.8 hPa WSW 1.6 mph /  2.6 km/h   68 % 0 in /  0.0 mm
20:24 75.4 °F /  24.1 °C 64 °F /  17.8 °C 30.1 in /  1017.8 hPa SSE 2.4 mph /  3.9 km/h 2.4 mph /  3.9 km/h 68 % 0 in /  0.0 mm
20:25 72.1 °F /  22.3 °C 65.7 °F /  18.7 °C 30.1 in /  1017.8 hPa Calm     80 % 0 in /  0.0 mm
20:29 75.4 °F /  24.1 °C 64 °F /  17.8 °C 30.1 in /  1017.8 hPa SW 3.5 mph /  5.6 km/h 3.5 mph /  5.6 km/h 68 % 0 in /  0.0 mm
20:34 75.2 °F /  24.0 °C 63.9 °F /  17.7 °C 30.1 in /  1017.8 hPa SW 2.3 mph /  3.7 km/h 2.3 mph /  3.7 km/h 68 % 0 in /  0.0 mm
20:35 71.8 °F /  22.1 °C 65.3 °F /  18.5 °C 30.1 in /  1017.8 hPa NNW 1 mph /  1.6 km/h 2 mph /  3.2 km/h 80 % 0 in /  0.0 mm
20:39 75.2 °F /  24.0 °C 63.9 °F /  17.7 °C 30.1 in /  1017.8 hPa South 3.5 mph /  5.6 km/h 3.5 mph /  5.6 km/h 68 % 0 in /  0.0 mm
20:44 75.2 °F /  24.0 °C 63.9 °F /  17.7 °C 30.1 in /  1017.8 hPa SW 2.4 mph /  3.9 km/h 2.4 mph /  3.9 km/h 68 % 0 in /  0.0 mm
20:45 71.6 °F /  22.0 °C 65.1 °F /  18.4 °C 30.1 in /  1017.8 hPa NNE 1 mph /  1.6 km/h 2 mph /  3.2 km/h 80 % 0 in /  0.0 mm
20:49 75.2 °F /  24.0 °C 63.9 °F /  17.7 °C 30.1 in /  1017.8 hPa SSW 3.5 mph /  5.6 km/h 3.5 mph /  5.6 km/h 68 % 0 in /  0.0 mm
20:54 75 °F /  23.9 °C 64.6 °F /  18.1 °C 30.1 in /  1017.8 hPa SSW 1.2 mph /  1.9 km/h 1.2 mph /  1.9 km/h 70 % 0 in /  0.0 mm
20:55 71.4 °F /  21.9 °C 64.9 °F /  18.3 °C 30.1 in /  1017.8 hPa Calm   1 mph /  1.6 km/h 80 % 0 in /  0.0 mm
20:59 74.8 °F /  23.8 °C 64 °F /  17.8 °C 30.1 in /  1017.8 hPa South 3.5 mph /  5.6 km/h 3.5 mph /  5.6 km/h 69 % 0 in /  0.0 mm
21:04 74.7 °F /  23.7 °C 64.2 °F /  17.9 °C 30.1 in /  1017.8 hPa WSW 3.5 mph /  5.6 km/h 3.5 mph /  5.6 km/h 70 % 0 in /  0.0 mm
21:05 71.6 °F /  22.0 °C 65.8 °F /  18.8 °C 30.1 in /  1017.8 hPa ENE 1 mph /  1.6 km/h 2 mph /  3.2 km/h 82 % 0 in /  0.0 mm
21:09 74.5 °F /  23.6 °C 64 °F /  17.8 °C 30.1 in /  1017.8 hPa SW 4.6 mph /  7.4 km/h 4.6 mph /  7.4 km/h 70 % 0 in /  0.0 mm
21:14 74.3 °F /  23.5 °C 63.9 °F /  17.7 °C 30.1 in /  1017.8 hPa WSW 2.3 mph /  3.7 km/h 2.3 mph /  3.7 km/h 70 % 0 in /  0.0 mm
21:15 71.4 °F /  21.9 °C 65.3 °F /  18.5 °C 30.1 in /  1017.8 hPa ENE 1 mph /  1.6 km/h 2 mph /  3.2 km/h 81 % 0 in /  0.0 mm
21:19 74.3 °F /  23.5 °C 63.9 °F /  17.7 °C 30.1 in /  1017.8 hPa SW 2.4 mph /  3.9 km/h 2.4 mph /  3.9 km/h 70 % 0 in /  0.0 mm
21:24 74.5 °F /  23.6 °C 64.6 °F /  18.1 °C 30.1 in /  1017.8 hPa SW 2 mph /  3.2 km/h 2 mph /  3.2 km/h 71 % 0 in /  0.0 mm
21:25 71.2 °F /  21.8 °C 65.5 °F /  18.6 °C 30.1 in /  1017.8 hPa East 2 mph /  3.2 km/h 2 mph /  3.2 km/h 82 % 0 in /  0.0 mm
21:29 74.5 °F /  23.6 °C 64.6 °F /  18.1 °C 30.1 in /  1017.8 hPa WSW 2.3 mph /  3.7 km/h 2.3 mph /  3.7 km/h 71 % 0 in /  0.0 mm
21:34 74.3 °F /  23.5 °C 64.2 °F /  17.9 °C 30.1 in /  1017.8 hPa SW 2.4 mph /  3.9 km/h 2.4 mph /  3.9 km/h 71 % 0 in /  0.0 mm
21:35 70.9 °F /  21.6 °C 65.5 °F /  18.6 °C 30.1 in /  1017.8 hPa East 1 mph /  1.6 km/h 3 mph /  4.8 km/h 83 % 0 in /  0.0 mm
21:39 74.1 °F /  23.4 °C 64 °F /  17.8 °C 30.1 in /  1017.8 hPa SW 2.9 mph /  4.7 km/h 2.9 mph /  4.7 km/h 71 % 0 in /  0.0 mm
21:44 73.9 °F /  23.3 °C 63.9 °F /  17.7 °C 30.1 in /  1017.8 hPa WSW 3.5 mph /  5.6 km/h 3.5 mph /  5.6 km/h 71 % 0 in /  0.0 mm
21:45 70.3 °F /  21.3 °C 64.6 °F /  18.1 °C 30.1 in /  1017.8 hPa ENE 3 mph /  4.8 km/h 4 mph /  6.4 km/h 82 % 0 in /  0.0 mm
21:49 73.9 °F /  23.3 °C 64.2 °F /  17.9 °C 30.1 in /  1017.8 hPa WSW 3.5 mph /  5.6 km/h 3.5 mph /  5.6 km/h 72 % 0 in /  0.0 mm
21:54 73.9 °F /  23.3 °C 64.2 °F /  17.9 °C 30.1 in /  1017.8 hPa SW 1.6 mph /  2.6 km/h 1.6 mph /  2.6 km/h 72 % 0 in /  0.0 mm
21:55 69.8 °F /  21.0 °C 64.4 °F /  18.0 °C 30.1 in /  1017.8 hPa ENE 2 mph /  3.2 km/h 3 mph /  4.8 km/h 83 % 0 in /  0.0 mm
21:59 73.8 °F /  23.2 °C 64.6 °F /  18.1 °C 30.1 in /  1017.8 hPa SW 2.2 mph /  3.5 km/h 2.2 mph /  3.5 km/h 73 % 0 in /  0.0 mm
22:04 73.6 °F /  23.1 °C 64.4 °F /  18.0 °C 30.1 in /  1017.8 hPa SW 1.2 mph /  1.9 km/h   73 % 0 in /  0.0 mm
22:05 69.8 °F /  21.0 °C 64.4 °F /  18.0 °C 30.1 in /  1017.8 hPa NE 1 mph /  1.6 km/h 3 mph /  4.8 km/h 83 % 0 in /  0.0 mm
22:09 73.6 °F /  23.1 °C 64.4 °F /  18.0 °C 30.1 in /  1017.8 hPa Calm     73 % 0 in /  0.0 mm
22:14 73.4 °F /  23.0 °C 64.2 °F /  17.9 °C 30.1 in /  1017.8 hPa SW 2.6 mph /  4.2 km/h 2.6 mph /  4.2 km/h 73 % 0 in /  0.0 mm
22:15 69.8 °F /  21.0 °C 64.4 °F /  18.0 °C 30.1 in /  1017.8 hPa NNE 1 mph /  1.6 km/h 2 mph /  3.2 km/h 83 % 0 in /  0.0 mm
22:19 73.4 °F /  23.0 °C 64.2 °F /  17.9 °C 30.1 in /  1017.8 hPa SW 1.2 mph /  1.9 km/h   73 % 0 in /  0.0 mm
22:24 73.2 °F /  22.9 °C 64.4 °F /  18.0 °C 30.1 in /  1017.8 hPa SW 1.2 mph /  1.9 km/h   74 % 0 in /  0.0 mm
22:25 69.8 °F /  21.0 °C 64.4 °F /  18.0 °C 30.1 in /  1017.8 hPa NE 1 mph /  1.6 km/h 2 mph /  3.2 km/h 83 % 0 in /  0.0 mm
22:29 73.2 °F /  22.9 °C 64.4 °F /  18.0 °C 30.1 in /  1017.8 hPa SW 3.5 mph /  5.6 km/h 3.5 mph /  5.6 km/h 74 % 0 in /  0.0 mm
22:34 73 °F /  22.8 °C 64.2 °F /  17.9 °C 30.1 in /  1017.8 hPa SW 1.2 mph /  1.9 km/h 1.2 mph /  1.9 km/h 74 % 0 in /  0.0 mm
22:35 69.8 °F /  21.0 °C 64.8 °F /  18.2 °C 30.1 in /  1017.8 hPa NE 1 mph /  1.6 km/h 2 mph /  3.2 km/h 84 % 0 in /  0.0 mm
22:39 72.9 °F /  22.7 °C 64 °F /  17.8 °C 30.1 in /  1017.8 hPa SW 1.2 mph /  1.9 km/h 1.2 mph /  1.9 km/h 74 % 0 in /  0.0 mm
22:44 72.9 °F /  22.7 °C 64 °F /  17.8 °C 30.1 in /  1017.8 hPa WSW 2.3 mph /  3.7 km/h 2.3 mph /  3.7 km/h 74 % 0 in /  0.0 mm
22:45 69.4 °F /  20.8 °C 63.7 °F /  17.6 °C 30.1 in /  1017.8 hPa North 1 mph /  1.6 km/h 2 mph /  3.2 km/h 82 % 0 in /  0.0 mm
22:49 72.7 °F /  22.6 °C 64.2 °F /  17.9 °C 30.1 in /  1017.8 hPa WSW 2.3 mph /  3.7 km/h 2.3 mph /  3.7 km/h 75 % 0 in /  0.0 mm
22:55 68.9 °F /  20.5 °C 60.6 °F /  15.9 °C 30.1 in /  1017.8 hPa NW 2 mph /  3.2 km/h 3 mph /  4.8 km/h 75 % 0 in /  0.0 mm
22:59 72.7 °F /  22.6 °C 64.2 °F /  17.9 °C 30.1 in /  1017.8 hPa WSW 1.2 mph /  1.9 km/h   75 % 0 in /  0.0 mm
23:04 72.9 °F /  22.7 °C 64.8 °F /  18.2 °C 30.1 in /  1017.8 hPa WSW 1.2 mph /  1.9 km/h 1.2 mph /  1.9 km/h 76 % 0 in /  0.0 mm
23:05 69.1 °F /  20.6 °C 58.1 °F /  14.5 °C 30.1 in /  1017.8 hPa WNW 2 mph /  3.2 km/h 3 mph /  4.8 km/h 68 % 0 in /  0.0 mm
23:09 72.9 °F /  22.7 °C 64.8 °F /  18.2 °C 30.1 in /  1017.8 hPa WSW 2.3 mph /  3.7 km/h 2.3 mph /  3.7 km/h 76 % 0 in /  0.0 mm
23:14 72.9 °F /  22.7 °C 64.8 °F /  18.2 °C 30.1 in /  1017.8 hPa SW 1.2 mph /  1.9 km/h 1.2 mph /  1.9 km/h 76 % 0 in /  0.0 mm
23:15 68.7 °F /  20.4 °C 56.5 °F /  13.6 °C 30 in /  1016.8 hPa West 2 mph /  3.2 km/h 3 mph /  4.8 km/h 65 % 0 in /  0.0 mm
23:19 72.9 °F /  22.7 °C 64.8 °F /  18.2 °C 30.1 in /  1017.8 hPa SW 1.2 mph /  1.9 km/h   76 % 0 in /  0.0 mm
23:24 73 °F /  22.8 °C 64.9 °F /  18.3 °C 30 in /  1016.8 hPa SW 3.5 mph /  5.6 km/h 3.5 mph /  5.6 km/h 76 % 0 in /  0.0 mm
23:25 68.4 °F /  20.2 °C 55.2 °F /  12.9 °C 30 in /  1016.8 hPa West 1 mph /  1.6 km/h 1 mph /  1.6 km/h 63 % 0 in /  0.0 mm
23:29 73 °F /  22.8 °C 65.5 °F /  18.6 °C 30 in /  1016.8 hPa SW 2.9 mph /  4.7 km/h 2.9 mph /  4.7 km/h 77 % 0 in /  0.0 mm
23:34 73 °F /  22.8 °C 64.9 °F /  18.3 °C 30 in /  1016.8 hPa West 3.3 mph /  5.3 km/h 3.3 mph /  5.3 km/h 76 % 0 in /  0.0 mm
23:35 67.8 °F /  19.9 °C 54.3 °F /  12.4 °C 30 in /  1016.8 hPa NW 1 mph /  1.6 km/h 3 mph /  4.8 km/h 62 % 0 in /  0.0 mm
23:39 73.2 °F /  22.9 °C 65.7 °F /  18.7 °C 30.1 in /  1017.8 hPa West 2.3 mph /  3.7 km/h 2.3 mph /  3.7 km/h 77 % 0 in /  0.0 mm
23:44 73.2 °F /  22.9 °C 65.7 °F /  18.7 °C 30.1 in /  1017.8 hPa SW 2.3 mph /  3.7 km/h 2.3 mph /  3.7 km/h 77 % 0 in /  0.0 mm
23:45 67.3 °F /  19.6 °C 53.4 °F /  11.9 °C 30 in /  1015.8 hPa West 2 mph /  3.2 km/h 4 mph /  6.4 km/h 61 % 0 in /  0.0 mm
23:49 73 °F /  22.8 °C 65.5 °F /  18.6 °C 30.1 in /  1017.8 hPa WSW 2.3 mph /  3.7 km/h 2.3 mph /  3.7 km/h 77 % 0 in /  0.0 mm
23:54 73 °F /  22.8 °C 65.5 °F /  18.6 °C 30.1 in /  1017.8 hPa SW 1.6 mph /  2.6 km/h 1.6 mph /  2.6 km/h 77 % 0 in /  0.0 mm
23:55 66.7 °F /  19.3 °C 52.3 °F /  11.3 °C 30 in /  1015.8 hPa West 1 mph /  1.6 km/h 4 mph /  6.4 km/h 60 % 0 in /  0.0 mm
23:59 73 °F /  22.8 °C 65.5 °F /  18.6 °C 30.1 in /  1017.8 hPa WSW 2.3 mph /  3.7 km/h 2.3 mph /  3.7 km/h 77 % 0 in /  0.0 mm
Meteo Sesrovires
Elogis d' Weather Underground - 3.75 mb

Guio original per  Jim McMurry - jmcmurry@mwt.net Adaptat per a la plantilla per  Wim van der Kuil - Leuven-Template.eu

Trobareu la nostra informacio del temps tambe a:

Weather Underground

AWEKAS